PBD442 UWKE-UUWW
Flight info
| Callsign | PBD442 |
|---|---|
| Flight time | N/A |
| Altitude | 38000 |
| Route | BAKAP2E BAKAP L158 DIMGI DIMGI3B |
| Aircraft | B738/M-SDE2E3FGHIRWXY/LB1 |
Departure
| Time | 2026-04-16 14:23 |
|---|---|
| Airport | Begishevo Airport (UWKE) |
Arrival
| Time | N/A |
|---|---|
| Airport | Vnukovo International Airport (UUWW) |
| Time | Latitude | Longitude | Altitude | Speed | Heading |
|---|---|---|---|---|---|
| 2026-04-16 14:02 | 55.56611 | 52.10201 | 636 ft | 0 kts | 137° |
| 2026-04-16 14:15 | 55.56610 | 52.10203 | 637 ft | 1 kts | 137° |
| 2026-04-16 14:15 | 55.56585 | 52.10221 | 638 ft | 4 kts | 175° |
| 2026-04-16 14:16 | 55.56556 | 52.10207 | 639 ft | 4 kts | 215° |
| 2026-04-16 14:16 | 55.56540 | 52.10165 | 640 ft | 4 kts | 277° |
| 2026-04-16 14:16 | 55.56559 | 52.10090 | 638 ft | 9 kts | 295° |
| 2026-04-16 14:16 | 55.56601 | 52.09959 | 636 ft | 11 kts | 306° |
| 2026-04-16 14:17 | 55.56655 | 52.09856 | 635 ft | 11 kts | 316° |
| 2026-04-16 14:17 | 55.56666 | 52.09837 | 635 ft | 5 kts | 315° |
| 2026-04-16 14:17 | 55.56693 | 52.09763 | 634 ft | 7 kts | 272° |
| 2026-04-16 14:17 | 55.56684 | 52.09695 | 634 ft | 4 kts | 241° |
| 2026-04-16 14:18 | 55.56675 | 52.09673 | 634 ft | 5 kts | 229° |
| 2026-04-16 14:18 | 55.56628 | 52.09588 | 633 ft | 13 kts | 225° |
| 2026-04-16 14:18 | 55.56545 | 52.09438 | 633 ft | 19 kts | 226° |
| 2026-04-16 14:18 | 55.56449 | 52.09255 | 632 ft | 19 kts | 227° |
| 2026-04-16 14:19 | 55.56358 | 52.09078 | 630 ft | 20 kts | 227° |
| 2026-04-16 14:19 | 55.56264 | 52.08891 | 628 ft | 20 kts | 229° |
| 2026-04-16 14:19 | 55.56168 | 52.08705 | 625 ft | 20 kts | 227° |
| 2026-04-16 14:19 | 55.56067 | 52.08516 | 621 ft | 21 kts | 227° |
| 2026-04-16 14:20 | 55.55966 | 52.08333 | 621 ft | 20 kts | 226° |
| 2026-04-16 14:20 | 55.55868 | 52.08151 | 619 ft | 20 kts | 226° |
| 2026-04-16 14:20 | 55.55770 | 52.07970 | 617 ft | 17 kts | 225° |
| 2026-04-16 14:20 | 55.55755 | 52.07946 | 617 ft | 0 kts | 222° |
| 2026-04-16 14:21 | 55.55752 | 52.07941 | 616 ft | 1 kts | 218° |
| 2026-04-16 14:21 | 55.55737 | 52.07921 | 616 ft | 3 kts | 218° |
| 2026-04-16 14:22 | 55.55731 | 52.07898 | 616 ft | 1 kts | 336° |
| 2026-04-16 14:22 | 55.55747 | 52.07912 | 616 ft | 2 kts | 27° |
| 2026-04-16 14:22 | 55.55767 | 52.07935 | 617 ft | 8 kts | 38° |
| 2026-04-16 14:22 | 55.55896 | 52.08168 | 619 ft | 51 kts | 47° |
| 2026-04-16 14:23 | 55.56315 | 52.08959 | 628 ft | 123 kts | 47° |
| 2026-04-16 14:23 | 55.57023 | 52.10328 | 627 ft | 180 kts | 47° |
| 2026-04-16 14:23 | 55.57895 | 52.12034 | 1275 ft | 183 kts | 45° |
| 2026-04-16 14:23 | 55.58798 | 52.13614 | 1629 ft | 204 kts | 43° |
| 2026-04-16 14:24 | 55.59781 | 52.15696 | 1721 ft | 230 kts | 65° |
| 2026-04-16 14:24 | 55.60039 | 52.18469 | 1787 ft | 233 kts | 90° |
| 2026-04-16 14:24 | 55.60047 | 52.21344 | 1060 ft | 234 kts | 85° |
| 2026-04-16 14:24 | 55.60012 | 52.23932 | 1222 ft | 194 kts | 88° |
| 2026-04-16 14:25 | 55.60091 | 52.26353 | 792 ft | 195 kts | 85° |
| 2026-04-16 14:25 | 55.60110 | 52.28639 | 608 ft | 181 kts | 88° |
| 2026-04-16 14:25 | 55.60138 | 52.30889 | 665 ft | 183 kts | 81° |
| 2026-04-16 14:25 | 55.60395 | 52.32949 | 1061 ft | 182 kts | 69° |
| 2026-04-16 14:26 | 55.60884 | 52.35374 | 830 ft | 236 kts | 68° |
| 2026-04-16 14:26 | 55.61738 | 52.38045 | 1004 ft | 263 kts | 52° |
| 2026-04-16 14:26 | 55.62920 | 52.40732 | 1190 ft | 290 kts | 51° |
| 2026-04-16 14:26 | 55.64261 | 52.43649 | 1016 ft | 322 kts | 49° |
| 2026-04-16 14:27 | 55.65754 | 52.46741 | 1086 ft | 340 kts | 48° |
| 2026-04-16 14:27 | 55.67313 | 52.49894 | 1562 ft | 342 kts | 48° |
| 2026-04-16 14:27 | 55.68850 | 52.53006 | 2305 ft | 337 kts | 48° |
| 2026-04-16 14:27 | 55.70372 | 52.56134 | 3116 ft | 331 kts | 49° |
| 2026-04-16 14:28 | 55.71827 | 52.59197 | 3692 ft | 332 kts | 49° |
| 2026-04-16 14:28 | 55.73318 | 52.62416 | 3932 ft | 344 kts | 50° |
| 2026-04-16 14:28 | 55.74848 | 52.65821 | 3938 ft | 360 kts | 52° |
| 2026-04-16 14:28 | 55.76417 | 52.69418 | 3834 ft | 376 kts | 52° |
| 2026-04-16 14:29 | 55.78011 | 52.73173 | 3539 ft | 393 kts | 53° |
| 2026-04-16 14:29 | 55.79652 | 52.77151 | 3181 ft | 408 kts | 54° |
| 2026-04-16 14:29 | 55.80810 | 52.80046 | 4220 ft | 394 kts | 55° |